sensor_id;sensor_type;location;lat;lon;timestamp;temperature;humidity
30300;DHT22;17110;52.602;12.998;2023-08-06T00:00:59;16.10;99.90
30300;DHT22;17110;52.602;12.998;2023-08-06T00:03:24;16.10;99.90
30300;DHT22;17110;52.602;12.998;2023-08-06T00:05:51;16.10;99.90
30300;DHT22;17110;52.602;12.998;2023-08-06T00:08:17;16.10;99.90
30300;DHT22;17110;52.602;12.998;2023-08-06T00:10:43;16.20;99.90
30300;DHT22;17110;52.602;12.998;2023-08-06T00:13:08;16.20;99.90
30300;DHT22;17110;52.602;12.998;2023-08-06T00:15:34;16.10;99.90
30300;DHT22;17110;52.602;12.998;2023-08-06T00:17:59;16.10;99.90
30300;DHT22;17110;52.602;12.998;2023-08-06T00:20:25;16.10;99.90
30300;DHT22;17110;52.602;12.998;2023-08-06T00:22:52;16.10;99.90
30300;DHT22;17110;52.602;12.998;2023-08-06T00:25:18;16.10;99.90
30300;DHT22;17110;52.602;12.998;2023-08-06T00:27:43;16.10;99.90
30300;DHT22;17110;52.602;12.998;2023-08-06T00:30:10;16.10;99.90
30300;DHT22;17110;52.602;12.998;2023-08-06T00:32:36;16.10;99.90
30300;DHT22;17110;52.602;12.998;2023-08-06T00:35:01;16.00;99.90
30300;DHT22;17110;52.602;12.998;2023-08-06T00:37:27;16.00;99.90
30300;DHT22;17110;52.602;12.998;2023-08-06T00:39:54;16.00;99.90
30300;DHT22;17110;52.602;12.998;2023-08-06T00:42:19;16.00;99.90
30300;DHT22;17110;52.602;12.998;2023-08-06T00:44:45;15.90;99.90
30300;DHT22;17110;52.602;12.998;2023-08-06T00:47:11;15.90;99.90
30300;DHT22;17110;52.602;12.998;2023-08-06T00:49:37;16.00;99.90
30300;DHT22;17110;52.602;12.998;2023-08-06T00:52:04;16.00;99.90
30300;DHT22;17110;52.602;12.998;2023-08-06T00:54:31;16.00;99.90
30300;DHT22;17110;52.602;12.998;2023-08-06T00:56:59;16.00;99.90
30300;DHT22;17110;52.602;12.998;2023-08-06T00:59:26;16.00;99.90
30300;DHT22;17110;52.602;12.998;2023-08-06T01:01:52;16.00;99.90
30300;DHT22;17110;52.602;12.998;2023-08-06T01:04:19;16.00;99.90
30300;DHT22;17110;52.602;12.998;2023-08-06T01:06:48;16.00;99.90
30300;DHT22;17110;52.602;12.998;2023-08-06T01:09:23;16.00;99.90
30300;DHT22;17110;52.602;12.998;2023-08-06T01:12:02;16.00;99.90
30300;DHT22;17110;52.602;12.998;2023-08-06T01:14:38;16.00;99.90
30300;DHT22;17110;52.602;12.998;2023-08-06T01:17:09;16.00;99.90
30300;DHT22;17110;52.602;12.998;2023-08-06T01:19:35;16.00;99.90
30300;DHT22;17110;52.602;12.998;2023-08-06T01:22:02;16.00;99.90
30300;DHT22;17110;52.602;12.998;2023-08-06T01:24:28;16.00;99.90
30300;DHT22;17110;52.602;12.998;2023-08-06T01:26:58;16.00;99.90
30300;DHT22;17110;52.602;12.998;2023-08-06T01:29:31;16.00;99.90
30300;DHT22;17110;52.602;12.998;2023-08-06T01:31:59;16.00;99.90
30300;DHT22;17110;52.602;12.998;2023-08-06T01:34:28;16.00;99.90
30300;DHT22;17110;52.602;12.998;2023-08-06T01:36:54;16.00;99.90
30300;DHT22;17110;52.602;12.998;2023-08-06T01:39:22;16.00;99.90
30300;DHT22;17110;52.602;12.998;2023-08-06T01:41:48;16.00;99.90
30300;DHT22;17110;52.602;12.998;2023-08-06T01:44:14;16.00;99.90
30300;DHT22;17110;52.602;12.998;2023-08-06T01:46:39;16.00;99.90
30300;DHT22;17110;52.602;12.998;2023-08-06T01:49:06;16.00;99.90
30300;DHT22;17110;52.602;12.998;2023-08-06T01:51:32;16.00;99.90
30300;DHT22;17110;52.602;12.998;2023-08-06T01:53:58;16.00;99.90
30300;DHT22;17110;52.602;12.998;2023-08-06T01:56:25;16.00;99.90
30300;DHT22;17110;52.602;12.998;2023-08-06T01:58:51;16.00;99.90
30300;DHT22;17110;52.602;12.998;2023-08-06T02:01:17;16.00;99.90
30300;DHT22;17110;52.602;12.998;2023-08-06T02:03:42;16.00;99.90
30300;DHT22;17110;52.602;12.998;2023-08-06T02:06:09;16.10;99.90
30300;DHT22;17110;52.602;12.998;2023-08-06T02:08:35;16.10;99.90
30300;DHT22;17110;52.602;12.998;2023-08-06T02:11:01;16.10;99.90
30300;DHT22;17110;52.602;12.998;2023-08-06T02:13:28;16.10;99.90
30300;DHT22;17110;52.602;12.998;2023-08-06T02:15:53;16.10;99.90
30300;DHT22;17110;52.602;12.998;2023-08-06T02:18:19;16.10;99.90
30300;DHT22;17110;52.602;12.998;2023-08-06T02:20:55;16.10;99.90
30300;DHT22;17110;52.602;12.998;2023-08-06T02:23:21;16.10;99.90
30300;DHT22;17110;52.602;12.998;2023-08-06T02:25:47;16.10;99.90
30300;DHT22;17110;52.602;12.998;2023-08-06T02:28:12;16.10;99.90
30300;DHT22;17110;52.602;12.998;2023-08-06T02:30:49;16.10;99.90
30300;DHT22;17110;52.602;12.998;2023-08-06T02:33:15;16.10;99.90
30300;DHT22;17110;52.602;12.998;2023-08-06T02:35:40;16.10;99.90
30300;DHT22;17110;52.602;12.998;2023-08-06T02:38:06;16.10;99.90
30300;DHT22;17110;52.602;12.998;2023-08-06T02:40:32;16.10;99.90
30300;DHT22;17110;52.602;12.998;2023-08-06T02:42:57;16.10;99.90
30300;DHT22;17110;52.602;12.998;2023-08-06T02:45:23;16.10;99.90
30300;DHT22;17110;52.602;12.998;2023-08-06T02:47:50;16.10;99.90
30300;DHT22;17110;52.602;12.998;2023-08-06T02:50:16;16.00;99.90
30300;DHT22;17110;52.602;12.998;2023-08-06T02:52:41;16.00;99.90
30300;DHT22;17110;52.602;12.998;2023-08-06T02:55:08;16.00;99.90
30300;DHT22;17110;52.602;12.998;2023-08-06T02:57:37;16.00;99.90
30300;DHT22;17110;52.602;12.998;2023-08-06T03:00:04;16.00;99.90
30300;DHT22;17110;52.602;12.998;2023-08-06T03:02:30;16.00;99.90
30300;DHT22;17110;52.602;12.998;2023-08-06T03:05:17;16.00;99.90
30300;DHT22;17110;52.602;12.998;2023-08-06T03:07:45;16.00;99.90
30300;DHT22;17110;52.602;12.998;2023-08-06T03:10:17;16.00;99.90
30300;DHT22;17110;52.602;12.998;2023-08-06T03:12:43;16.10;99.90
30300;DHT22;17110;52.602;12.998;2023-08-06T03:15:09;16.00;99.90
30300;DHT22;17110;52.602;12.998;2023-08-06T03:17:35;16.00;99.90
30300;DHT22;17110;52.602;12.998;2023-08-06T03:20:03;16.00;99.90
30300;DHT22;17110;52.602;12.998;2023-08-06T03:22:31;16.00;99.90
30300;DHT22;17110;52.602;12.998;2023-08-06T03:24:57;16.10;99.90
30300;DHT22;17110;52.602;12.998;2023-08-06T03:27:24;16.00;99.90
30300;DHT22;17110;52.602;12.998;2023-08-06T03:29:51;16.10;99.90
30300;DHT22;17110;52.602;12.998;2023-08-06T03:32:19;16.10;99.90
30300;DHT22;17110;52.602;12.998;2023-08-06T03:34:45;16.00;99.90
30300;DHT22;17110;52.602;12.998;2023-08-06T03:37:11;16.00;99.90
30300;DHT22;17110;52.602;12.998;2023-08-06T03:39:38;16.00;99.90
30300;DHT22;17110;52.602;12.998;2023-08-06T03:42:04;16.00;99.90
30300;DHT22;17110;52.602;12.998;2023-08-06T03:44:30;16.00;99.90
30300;DHT22;17110;52.602;12.998;2023-08-06T03:46:56;16.00;99.90
30300;DHT22;17110;52.602;12.998;2023-08-06T03:49:21;16.00;99.90
30300;DHT22;17110;52.602;12.998;2023-08-06T03:51:47;16.00;99.90
30300;DHT22;17110;52.602;12.998;2023-08-06T03:54:13;16.00;99.90
30300;DHT22;17110;52.602;12.998;2023-08-06T03:56:39;16.00;99.90
30300;DHT22;17110;52.602;12.998;2023-08-06T03:59:05;16.00;99.90
30300;DHT22;17110;52.602;12.998;2023-08-06T04:01:31;16.00;99.90
30300;DHT22;17110;52.602;12.998;2023-08-06T04:03:57;16.00;99.90
30300;DHT22;17110;52.602;12.998;2023-08-06T04:06:23;16.00;99.90
30300;DHT22;17110;52.602;12.998;2023-08-06T04:08:48;16.00;99.90
30300;DHT22;17110;52.602;12.998;2023-08-06T04:11:14;16.00;99.90
30300;DHT22;17110;52.602;12.998;2023-08-06T04:13:43;16.00;99.90
30300;DHT22;17110;52.602;12.998;2023-08-06T04:16:09;16.00;99.90
30300;DHT22;17110;52.602;12.998;2023-08-06T04:18:35;16.10;99.90
30300;DHT22;17110;52.602;12.998;2023-08-06T04:21:01;16.10;99.90
30300;DHT22;17110;52.602;12.998;2023-08-06T04:23:27;16.10;99.90
30300;DHT22;17110;52.602;12.998;2023-08-06T04:25:57;16.10;99.90
30300;DHT22;17110;52.602;12.998;2023-08-06T04:28:23;16.20;99.90
30300;DHT22;17110;52.602;12.998;2023-08-06T04:30:50;16.20;99.90
30300;DHT22;17110;52.602;12.998;2023-08-06T04:33:17;16.20;99.90
30300;DHT22;17110;52.602;12.998;2023-08-06T04:35:43;16.20;99.90
30300;DHT22;17110;52.602;12.998;2023-08-06T04:38:09;16.20;99.90
30300;DHT22;17110;52.602;12.998;2023-08-06T04:40:35;16.20;99.90
30300;DHT22;17110;52.602;12.998;2023-08-06T04:43:00;16.30;99.90
30300;DHT22;17110;52.602;12.998;2023-08-06T04:45:27;16.30;99.90
30300;DHT22;17110;52.602;12.998;2023-08-06T04:47:54;16.30;99.90
30300;DHT22;17110;52.602;12.998;2023-08-06T04:50:20;16.30;99.90
30300;DHT22;17110;52.602;12.998;2023-08-06T04:52:46;16.20;99.90
30300;DHT22;17110;52.602;12.998;2023-08-06T04:55:11;16.30;99.90
30300;DHT22;17110;52.602;12.998;2023-08-06T04:57:37;16.30;99.90
30300;DHT22;17110;52.602;12.998;2023-08-06T05:00:04;16.30;99.90
30300;DHT22;17110;52.602;12.998;2023-08-06T05:02:29;16.40;99.90
30300;DHT22;17110;52.602;12.998;2023-08-06T05:04:56;16.40;99.90
30300;DHT22;17110;52.602;12.998;2023-08-06T05:07:22;16.40;99.90
30300;DHT22;17110;52.602;12.998;2023-08-06T05:09:48;16.40;99.90
30300;DHT22;17110;52.602;12.998;2023-08-06T05:12:13;16.50;99.90
30300;DHT22;17110;52.602;12.998;2023-08-06T05:14:39;16.50;99.90
30300;DHT22;17110;52.602;12.998;2023-08-06T05:17:04;16.50;99.90
30300;DHT22;17110;52.602;12.998;2023-08-06T05:19:30;16.50;99.90
30300;DHT22;17110;52.602;12.998;2023-08-06T05:21:57;16.50;99.90
30300;DHT22;17110;52.602;12.998;2023-08-06T05:24:26;16.50;99.90
30300;DHT22;17110;52.602;12.998;2023-08-06T05:26:54;16.60;99.90
30300;DHT22;17110;52.602;12.998;2023-08-06T05:29:23;16.60;99.90
30300;DHT22;17110;52.602;12.998;2023-08-06T05:31:49;16.60;99.90
30300;DHT22;17110;52.602;12.998;2023-08-06T05:34:14;16.70;99.90
30300;DHT22;17110;52.602;12.998;2023-08-06T05:36:40;16.70;99.90
30300;DHT22;17110;52.602;12.998;2023-08-06T05:39:07;16.80;99.90
30300;DHT22;17110;52.602;12.998;2023-08-06T05:41:32;16.80;99.90
30300;DHT22;17110;52.602;12.998;2023-08-06T05:43:58;16.80;99.90
30300;DHT22;17110;52.602;12.998;2023-08-06T05:46:24;16.80;99.90
30300;DHT22;17110;52.602;12.998;2023-08-06T05:48:49;16.90;99.90
30300;DHT22;17110;52.602;12.998;2023-08-06T05:51:15;16.90;99.90
30300;DHT22;17110;52.602;12.998;2023-08-06T05:53:40;16.90;99.90
30300;DHT22;17110;52.602;12.998;2023-08-06T05:56:07;17.00;99.90
30300;DHT22;17110;52.602;12.998;2023-08-06T05:58:33;17.00;99.90
30300;DHT22;17110;52.602;12.998;2023-08-06T06:00:59;17.10;99.90
30300;DHT22;17110;52.602;12.998;2023-08-06T06:03:24;17.10;99.90
30300;DHT22;17110;52.602;12.998;2023-08-06T06:05:50;17.10;99.90
30300;DHT22;17110;52.602;12.998;2023-08-06T06:08:15;17.20;99.90
30300;DHT22;17110;52.602;12.998;2023-08-06T06:10:41;17.20;99.90
30300;DHT22;17110;52.602;12.998;2023-08-06T06:13:08;17.20;99.90
30300;DHT22;17110;52.602;12.998;2023-08-06T06:15:34;17.30;99.90
30300;DHT22;17110;52.602;12.998;2023-08-06T06:17:59;17.30;99.90
30300;DHT22;17110;52.602;12.998;2023-08-06T06:20:25;17.40;99.90
30300;DHT22;17110;52.602;12.998;2023-08-06T06:22:50;17.50;99.90
30300;DHT22;17110;52.602;12.998;2023-08-06T06:25:16;17.50;99.90
30300;DHT22;17110;52.602;12.998;2023-08-06T06:27:42;17.60;99.90
30300;DHT22;17110;52.602;12.998;2023-08-06T06:30:10;17.70;99.90
30300;DHT22;17110;52.602;12.998;2023-08-06T06:32:36;17.70;99.90
30300;DHT22;17110;52.602;12.998;2023-08-06T06:35:01;17.80;99.90
30300;DHT22;17110;52.602;12.998;2023-08-06T06:37:27;17.80;99.90
30300;DHT22;17110;52.602;12.998;2023-08-06T06:39:53;17.80;99.90
30300;DHT22;17110;52.602;12.998;2023-08-06T06:42:18;17.90;99.90
30300;DHT22;17110;52.602;12.998;2023-08-06T06:44:49;18.00;99.90
30300;DHT22;17110;52.602;12.998;2023-08-06T06:47:16;18.10;99.90
30300;DHT22;17110;52.602;12.998;2023-08-06T06:49:42;18.10;99.90
30300;DHT22;17110;52.602;12.998;2023-08-06T06:52:08;18.10;99.90
30300;DHT22;17110;52.602;12.998;2023-08-06T06:54:33;18.00;99.90
30300;DHT22;17110;52.602;12.998;2023-08-06T06:56:59;18.10;99.90
30300;DHT22;17110;52.602;12.998;2023-08-06T06:59:25;18.10;99.90
30300;DHT22;17110;52.602;12.998;2023-08-06T07:01:50;18.20;99.90
30300;DHT22;17110;52.602;12.998;2023-08-06T07:04:17;18.20;99.90
30300;DHT22;17110;52.602;12.998;2023-08-06T07:06:43;18.20;99.90
30300;DHT22;17110;52.602;12.998;2023-08-06T07:09:08;18.20;99.90
30300;DHT22;17110;52.602;12.998;2023-08-06T07:11:34;18.30;99.90
30300;DHT22;17110;52.602;12.998;2023-08-06T07:14:00;18.40;99.90
30300;DHT22;17110;52.602;12.998;2023-08-06T07:16:26;18.40;99.90
30300;DHT22;17110;52.602;12.998;2023-08-06T07:18:52;18.40;99.90
30300;DHT22;17110;52.602;12.998;2023-08-06T07:21:20;18.40;99.90
30300;DHT22;17110;52.602;12.998;2023-08-06T07:23:45;18.50;99.90
30300;DHT22;17110;52.602;12.998;2023-08-06T07:26:11;18.50;99.90
30300;DHT22;17110;52.602;12.998;2023-08-06T07:28:37;18.60;99.90
30300;DHT22;17110;52.602;12.998;2023-08-06T07:31:03;18.70;99.90
30300;DHT22;17110;52.602;12.998;2023-08-06T07:33:29;18.70;99.90
30300;DHT22;17110;52.602;12.998;2023-08-06T07:35:54;18.80;99.90
30300;DHT22;17110;52.602;12.998;2023-08-06T07:38:21;18.80;99.90
30300;DHT22;17110;52.602;12.998;2023-08-06T07:40:47;18.80;99.90
30300;DHT22;17110;52.602;12.998;2023-08-06T07:43:13;18.70;99.90
30300;DHT22;17110;52.602;12.998;2023-08-06T07:45:38;18.70;99.90
30300;DHT22;17110;52.602;12.998;2023-08-06T07:48:04;18.70;99.90
30300;DHT22;17110;52.602;12.998;2023-08-06T07:50:31;18.70;99.90
30300;DHT22;17110;52.602;12.998;2023-08-06T07:52:56;18.60;99.90
30300;DHT22;17110;52.602;12.998;2023-08-06T07:55:23;18.60;99.90
30300;DHT22;17110;52.602;12.998;2023-08-06T07:57:49;18.70;99.90
30300;DHT22;17110;52.602;12.998;2023-08-06T08:00:15;18.70;99.90
30300;DHT22;17110;52.602;12.998;2023-08-06T08:02:40;18.80;99.90
30300;DHT22;17110;52.602;12.998;2023-08-06T08:05:06;18.70;99.90
30300;DHT22;17110;52.602;12.998;2023-08-06T08:07:32;18.70;99.90
30300;DHT22;17110;52.602;12.998;2023-08-06T08:09:58;18.90;99.90
30300;DHT22;17110;52.602;12.998;2023-08-06T08:12:24;19.00;99.90
30300;DHT22;17110;52.602;12.998;2023-08-06T08:14:50;19.10;99.90
30300;DHT22;17110;52.602;12.998;2023-08-06T08:17:16;19.20;99.90
30300;DHT22;17110;52.602;12.998;2023-08-06T08:19:41;19.20;99.90
30300;DHT22;17110;52.602;12.998;2023-08-06T08:22:07;19.20;99.90
30300;DHT22;17110;52.602;12.998;2023-08-06T08:24:33;19.20;99.90
30300;DHT22;17110;52.602;12.998;2023-08-06T08:26:58;19.30;99.90
30300;DHT22;17110;52.602;12.998;2023-08-06T08:29:25;19.30;99.90
30300;DHT22;17110;52.602;12.998;2023-08-06T08:31:51;19.40;99.90
30300;DHT22;17110;52.602;12.998;2023-08-06T08:34:17;19.30;99.90
30300;DHT22;17110;52.602;12.998;2023-08-06T08:36:43;19.20;99.90
30300;DHT22;17110;52.602;12.998;2023-08-06T08:39:08;19.00;99.90
30300;DHT22;17110;52.602;12.998;2023-08-06T08:41:35;18.90;99.90
30300;DHT22;17110;52.602;12.998;2023-08-06T08:44:02;18.90;99.90
30300;DHT22;17110;52.602;12.998;2023-08-06T08:46:31;19.00;99.90
30300;DHT22;17110;52.602;12.998;2023-08-06T08:48:57;19.10;99.90
30300;DHT22;17110;52.602;12.998;2023-08-06T08:51:25;19.30;99.90
30300;DHT22;17110;52.602;12.998;2023-08-06T08:53:53;19.40;99.90
30300;DHT22;17110;52.602;12.998;2023-08-06T08:56:19;19.40;99.90
30300;DHT22;17110;52.602;12.998;2023-08-06T08:58:45;19.50;99.90
30300;DHT22;17110;52.602;12.998;2023-08-06T09:01:11;19.10;99.90
30300;DHT22;17110;52.602;12.998;2023-08-06T09:03:39;18.90;99.90
30300;DHT22;17110;52.602;12.998;2023-08-06T09:06:05;18.90;99.90
30300;DHT22;17110;52.602;12.998;2023-08-06T09:08:35;18.90;99.90
30300;DHT22;17110;52.602;12.998;2023-08-06T09:11:03;18.80;99.90
30300;DHT22;17110;52.602;12.998;2023-08-06T09:13:29;18.60;99.90
30300;DHT22;17110;52.602;12.998;2023-08-06T09:15:55;18.50;99.90
30300;DHT22;17110;52.602;12.998;2023-08-06T09:18:25;18.70;99.90
30300;DHT22;17110;52.602;12.998;2023-08-06T09:20:52;18.60;99.90
30300;DHT22;17110;52.602;12.998;2023-08-06T09:23:18;18.70;99.90
30300;DHT22;17110;52.602;12.998;2023-08-06T09:25:43;18.90;99.90
30300;DHT22;17110;52.602;12.998;2023-08-06T09:28:09;19.10;99.90
30300;DHT22;17110;52.602;12.998;2023-08-06T09:30:37;19.30;99.90
30300;DHT22;17110;52.602;12.998;2023-08-06T09:33:03;19.30;99.90
30300;DHT22;17110;52.602;12.998;2023-08-06T09:35:29;19.40;99.90
30300;DHT22;17110;52.602;12.998;2023-08-06T09:38:05;19.30;99.90
30300;DHT22;17110;52.602;12.998;2023-08-06T09:40:31;19.30;99.90
30300;DHT22;17110;52.602;12.998;2023-08-06T09:42:58;19.30;99.90
30300;DHT22;17110;52.602;12.998;2023-08-06T09:45:30;19.30;99.90
30300;DHT22;17110;52.602;12.998;2023-08-06T09:47:57;19.10;99.90
30300;DHT22;17110;52.602;12.998;2023-08-06T09:50:23;19.10;99.90
30300;DHT22;17110;52.602;12.998;2023-08-06T09:52:53;19.10;99.90
30300;DHT22;17110;52.602;12.998;2023-08-06T09:55:21;19.20;99.90
30300;DHT22;17110;52.602;12.998;2023-08-06T09:57:49;19.10;99.90
30300;DHT22;17110;52.602;12.998;2023-08-06T10:00:15;19.10;99.90
30300;DHT22;17110;52.602;12.998;2023-08-06T10:02:41;19.20;99.90
30300;DHT22;17110;52.602;12.998;2023-08-06T10:05:08;19.20;99.90
30300;DHT22;17110;52.602;12.998;2023-08-06T10:07:34;19.30;99.90
30300;DHT22;17110;52.602;12.998;2023-08-06T10:10:00;19.30;99.90
30300;DHT22;17110;52.602;12.998;2023-08-06T10:12:29;19.40;99.90
30300;DHT22;17110;52.602;12.998;2023-08-06T10:14:59;19.50;99.90
30300;DHT22;17110;52.602;12.998;2023-08-06T10:17:27;19.60;99.90
30300;DHT22;17110;52.602;12.998;2023-08-06T10:19:53;19.60;99.90
30300;DHT22;17110;52.602;12.998;2023-08-06T10:22:19;19.60;99.90
30300;DHT22;17110;52.602;12.998;2023-08-06T10:24:46;19.70;99.90
30300;DHT22;17110;52.602;12.998;2023-08-06T10:27:12;19.70;99.90
30300;DHT22;17110;52.602;12.998;2023-08-06T10:29:39;19.70;99.90
30300;DHT22;17110;52.602;12.998;2023-08-06T10:32:05;19.80;99.90
30300;DHT22;17110;52.602;12.998;2023-08-06T10:34:55;19.90;99.90
30300;DHT22;17110;52.602;12.998;2023-08-06T10:37:21;20.00;99.90
30300;DHT22;17110;52.602;12.998;2023-08-06T10:39:48;20.00;99.90
30300;DHT22;17110;52.602;12.998;2023-08-06T10:42:20;20.10;99.90
30300;DHT22;17110;52.602;12.998;2023-08-06T10:45:17;19.90;99.90
30300;DHT22;17110;52.602;12.998;2023-08-06T10:47:44;19.90;99.90
30300;DHT22;17110;52.602;12.998;2023-08-06T10:50:12;19.90;99.90
30300;DHT22;17110;52.602;12.998;2023-08-06T10:52:38;19.90;99.90
30300;DHT22;17110;52.602;12.998;2023-08-06T10:55:04;19.90;99.90
30300;DHT22;17110;52.602;12.998;2023-08-06T10:57:30;20.00;99.90
30300;DHT22;17110;52.602;12.998;2023-08-06T10:59:56;19.90;99.90
30300;DHT22;17110;52.602;12.998;2023-08-06T11:02:23;20.00;99.90
30300;DHT22;17110;52.602;12.998;2023-08-06T11:04:49;19.90;99.90
30300;DHT22;17110;52.602;12.998;2023-08-06T11:07:15;19.90;99.90
30300;DHT22;17110;52.602;12.998;2023-08-06T11:09:40;19.90;99.90
30300;DHT22;17110;52.602;12.998;2023-08-06T11:12:09;19.90;99.90
30300;DHT22;17110;52.602;12.998;2023-08-06T11:14:35;19.60;99.90
30300;DHT22;17110;52.602;12.998;2023-08-06T11:17:00;19.60;99.90
30300;DHT22;17110;52.602;12.998;2023-08-06T11:19:28;19.60;99.90
30300;DHT22;17110;52.602;12.998;2023-08-06T11:21:54;19.50;99.90
30300;DHT22;17110;52.602;12.998;2023-08-06T11:24:20;19.50;99.90
30300;DHT22;17110;52.602;12.998;2023-08-06T11:26:46;19.50;99.90
30300;DHT22;17110;52.602;12.998;2023-08-06T11:29:11;19.60;99.90
30300;DHT22;17110;52.602;12.998;2023-08-06T11:31:37;19.50;99.90
30300;DHT22;17110;52.602;12.998;2023-08-06T11:34:03;19.60;99.90
30300;DHT22;17110;52.602;12.998;2023-08-06T11:36:30;19.80;99.90
30300;DHT22;17110;52.602;12.998;2023-08-06T11:38:56;19.90;99.90
30300;DHT22;17110;52.602;12.998;2023-08-06T11:41:22;19.70;99.90
30300;DHT22;17110;52.602;12.998;2023-08-06T11:43:47;19.80;99.90
30300;DHT22;17110;52.602;12.998;2023-08-06T11:46:13;19.80;99.90
30300;DHT22;17110;52.602;12.998;2023-08-06T11:48:51;19.80;99.90
30300;DHT22;17110;52.602;12.998;2023-08-06T11:51:16;19.50;99.90
30300;DHT22;17110;52.602;12.998;2023-08-06T11:53:48;19.30;99.90
30300;DHT22;17110;52.602;12.998;2023-08-06T11:56:14;19.30;99.90
30300;DHT22;17110;52.602;12.998;2023-08-06T11:58:40;19.40;99.90
30300;DHT22;17110;52.602;12.998;2023-08-06T12:01:06;19.30;99.90
30300;DHT22;17110;52.602;12.998;2023-08-06T12:03:32;19.20;99.90
30300;DHT22;17110;52.602;12.998;2023-08-06T12:05:57;19.30;99.90
30300;DHT22;17110;52.602;12.998;2023-08-06T12:08:26;19.50;99.90
30300;DHT22;17110;52.602;12.998;2023-08-06T12:10:53;19.60;99.90
30300;DHT22;17110;52.602;12.998;2023-08-06T12:13:19;19.30;99.90
30300;DHT22;17110;52.602;12.998;2023-08-06T12:15:45;19.40;99.90
30300;DHT22;17110;52.602;12.998;2023-08-06T12:18:11;19.40;99.90
30300;DHT22;17110;52.602;12.998;2023-08-06T12:20:37;19.40;99.90
30300;DHT22;17110;52.602;12.998;2023-08-06T12:23:02;19.40;99.90
30300;DHT22;17110;52.602;12.998;2023-08-06T12:25:28;19.40;99.90
30300;DHT22;17110;52.602;12.998;2023-08-06T12:27:55;19.50;99.90
30300;DHT22;17110;52.602;12.998;2023-08-06T12:30:23;19.60;99.90
30300;DHT22;17110;52.602;12.998;2023-08-06T12:32:49;19.50;99.90
30300;DHT22;17110;52.602;12.998;2023-08-06T12:35:15;19.60;99.90
30300;DHT22;17110;52.602;12.998;2023-08-06T12:37:40;19.80;99.90
30300;DHT22;17110;52.602;12.998;2023-08-06T12:40:06;19.40;99.90
30300;DHT22;17110;52.602;12.998;2023-08-06T12:42:32;19.50;99.90
30300;DHT22;17110;52.602;12.998;2023-08-06T12:44:59;19.60;99.90
30300;DHT22;17110;52.602;12.998;2023-08-06T12:47:25;19.50;99.90
30300;DHT22;17110;52.602;12.998;2023-08-06T12:49:50;19.60;99.90
30300;DHT22;17110;52.602;12.998;2023-08-06T12:52:16;19.50;99.90
30300;DHT22;17110;52.602;12.998;2023-08-06T12:54:42;19.60;99.90
30300;DHT22;17110;52.602;12.998;2023-08-06T12:57:08;19.40;99.90
30300;DHT22;17110;52.602;12.998;2023-08-06T12:59:33;19.50;99.90
30300;DHT22;17110;52.602;12.998;2023-08-06T13:02:00;19.20;99.90
30300;DHT22;17110;52.602;12.998;2023-08-06T13:04:26;19.10;99.90
30300;DHT22;17110;52.602;12.998;2023-08-06T13:06:52;19.00;99.90
30300;DHT22;17110;52.602;12.998;2023-08-06T13:09:18;19.10;99.90
30300;DHT22;17110;52.602;12.998;2023-08-06T13:11:44;19.40;99.90
30300;DHT22;17110;52.602;12.998;2023-08-06T13:14:11;19.60;99.90
30300;DHT22;17110;52.602;12.998;2023-08-06T13:16:38;19.40;99.90
30300;DHT22;17110;52.602;12.998;2023-08-06T13:19:06;19.20;99.90
30300;DHT22;17110;52.602;12.998;2023-08-06T13:21:33;19.30;99.90
30300;DHT22;17110;52.602;12.998;2023-08-06T13:23:59;19.30;99.90
30300;DHT22;17110;52.602;12.998;2023-08-06T13:26:25;19.40;99.90
30300;DHT22;17110;52.602;12.998;2023-08-06T13:28:51;19.40;99.90
30300;DHT22;17110;52.602;12.998;2023-08-06T13:31:17;19.30;99.90
30300;DHT22;17110;52.602;12.998;2023-08-06T13:33:42;19.40;99.90
30300;DHT22;17110;52.602;12.998;2023-08-06T13:36:09;19.30;99.90
30300;DHT22;17110;52.602;12.998;2023-08-06T13:38:35;19.40;99.90
30300;DHT22;17110;52.602;12.998;2023-08-06T13:41:00;19.50;99.90
30300;DHT22;17110;52.602;12.998;2023-08-06T13:43:26;19.30;99.90
30300;DHT22;17110;52.602;12.998;2023-08-06T13:45:52;19.30;99.90
30300;DHT22;17110;52.602;12.998;2023-08-06T13:48:17;19.10;99.90
30300;DHT22;17110;52.602;12.998;2023-08-06T13:50:43;19.00;99.90
30300;DHT22;17110;52.602;12.998;2023-08-06T13:53:10;18.70;99.90
30300;DHT22;17110;52.602;12.998;2023-08-06T13:55:36;18.00;99.90
30300;DHT22;17110;52.602;12.998;2023-08-06T13:58:02;17.70;99.90
30300;DHT22;17110;52.602;12.998;2023-08-06T14:00:27;17.60;99.90
30300;DHT22;17110;52.602;12.998;2023-08-06T14:02:53;17.60;99.90
30300;DHT22;17110;52.602;12.998;2023-08-06T14:05:19;17.60;99.90
30300;DHT22;17110;52.602;12.998;2023-08-06T14:07:45;17.60;99.90
30300;DHT22;17110;52.602;12.998;2023-08-06T14:10:12;17.70;99.90
30300;DHT22;17110;52.602;12.998;2023-08-06T14:12:37;17.70;99.90
30300;DHT22;17110;52.602;12.998;2023-08-06T14:15:03;17.70;99.90
30300;DHT22;17110;52.602;12.998;2023-08-06T14:17:29;17.90;99.90
30300;DHT22;17110;52.602;12.998;2023-08-06T14:19:55;18.20;99.90
30300;DHT22;17110;52.602;12.998;2023-08-06T14:22:21;18.40;99.90
30300;DHT22;17110;52.602;12.998;2023-08-06T14:24:47;18.50;99.90
30300;DHT22;17110;52.602;12.998;2023-08-06T14:27:14;18.60;99.90
30300;DHT22;17110;52.602;12.998;2023-08-06T14:29:40;18.60;99.90
30300;DHT22;17110;52.602;12.998;2023-08-06T14:32:06;18.50;99.90
30300;DHT22;17110;52.602;12.998;2023-08-06T14:34:32;18.60;99.90
30300;DHT22;17110;52.602;12.998;2023-08-06T14:36:57;18.40;99.90
30300;DHT22;17110;52.602;12.998;2023-08-06T14:39:23;18.40;99.90
30300;DHT22;17110;52.602;12.998;2023-08-06T14:41:49;18.50;99.90
30300;DHT22;17110;52.602;12.998;2023-08-06T14:44:16;18.40;99.90
30300;DHT22;17110;52.602;12.998;2023-08-06T14:46:41;18.50;99.90
30300;DHT22;17110;52.602;12.998;2023-08-06T14:49:07;18.40;99.90
30300;DHT22;17110;52.602;12.998;2023-08-06T14:51:33;18.40;99.90
30300;DHT22;17110;52.602;12.998;2023-08-06T14:54:01;18.40;99.90
30300;DHT22;17110;52.602;12.998;2023-08-06T14:56:27;18.50;99.90
30300;DHT22;17110;52.602;12.998;2023-08-06T14:58:52;18.60;99.90
30300;DHT22;17110;52.602;12.998;2023-08-06T15:01:19;18.70;99.90
30300;DHT22;17110;52.602;12.998;2023-08-06T15:03:45;18.60;99.90
30300;DHT22;17110;52.602;12.998;2023-08-06T15:06:11;18.60;99.90
30300;DHT22;17110;52.602;12.998;2023-08-06T15:08:36;18.60;99.90
30300;DHT22;17110;52.602;12.998;2023-08-06T15:11:02;18.70;99.90